createdAt,value
2022-08-20T00:00:24.159Z,5.78
2022-08-20T00:02:57.517Z,5.75
2022-08-20T00:05:31.633Z,6.30
2022-08-20T00:07:59.646Z,6.07
2022-08-20T00:10:28.923Z,5.05
2022-08-20T00:12:56.750Z,4.72
2022-08-20T00:15:28.571Z,4.80
2022-08-20T00:17:57.591Z,4.53
2022-08-20T00:20:31.169Z,4.68
2022-08-20T00:22:58.730Z,5.32
2022-08-20T00:25:27.507Z,4.88
2022-08-20T00:27:55.449Z,5.53
2022-08-20T00:30:23.219Z,5.45
2022-08-20T00:32:54.001Z,5.68
2022-08-20T00:35:25.320Z,5.47
2022-08-20T00:37:53.016Z,6.70
2022-08-20T00:40:26.871Z,5.30
2022-08-20T00:42:59.651Z,6.25
2022-08-20T00:45:33.627Z,6.18
2022-08-20T00:48:00.859Z,5.18
2022-08-20T00:50:36.007Z,5.03
2022-08-20T00:53:05.575Z,5.72
2022-08-20T00:55:33.770Z,5.32
2022-08-20T00:58:09.096Z,5.60
2022-08-20T01:00:40.663Z,4.68
2022-08-20T01:03:10.103Z,6.00
2022-08-20T01:05:41.456Z,5.47
2022-08-20T01:08:09.455Z,5.40
2022-08-20T01:10:41.144Z,5.57
2022-08-20T01:13:11.951Z,5.93
2022-08-20T01:15:43.471Z,5.07
2022-08-20T01:18:14.695Z,5.50
2022-08-20T01:20:52.651Z,5.30
2022-08-20T01:23:42.079Z,6.32
2022-08-20T01:26:13.367Z,5.15
2022-08-20T01:28:49.442Z,5.75
2022-08-20T01:31:20.001Z,6.05
2022-08-20T01:33:48.214Z,5.72
2022-08-20T01:36:16.316Z,5.70
2022-08-20T01:38:50.234Z,5.50
2022-08-20T01:41:51.389Z,5.40
2022-08-20T01:44:20.390Z,5.38
2022-08-20T01:46:50.205Z,5.70
2022-08-20T01:49:28.196Z,5.15
2022-08-20T01:51:57.593Z,5.13
2022-08-20T01:54:25.743Z,5.63
2022-08-20T01:57:12.067Z,5.15
2022-08-20T01:59:39.655Z,4.85
2022-08-20T02:02:07.534Z,5.05
2022-08-20T02:04:35.227Z,4.78
2022-08-20T02:07:05.469Z,4.55
2022-08-20T02:09:36.912Z,4.95
2022-08-20T02:12:06.011Z,4.85
2022-08-20T02:14:34.573Z,6.10
2022-08-20T02:17:01.709Z,6.15
2022-08-20T02:19:50.580Z,4.72
2022-08-20T02:22:22.491Z,5.55
2022-08-20T02:24:49.552Z,5.25
2022-08-20T02:27:16.557Z,5.47
2022-08-20T02:29:43.762Z,5.30
2022-08-20T02:32:24.827Z,5.38
2022-08-20T02:34:58.250Z,5.07
2022-08-20T02:37:25.283Z,5.03
2022-08-20T02:39:52.283Z,5.20
2022-08-20T02:42:19.292Z,4.70
2022-08-20T02:44:46.547Z,5.57
2022-08-20T02:47:13.609Z,4.88
2022-08-20T02:49:40.557Z,5.28
2022-08-20T02:52:07.733Z,5.38
2022-08-20T02:54:35.477Z,5.15
2022-08-20T02:57:03.435Z,4.80
2022-08-20T02:59:30.381Z,4.80
2022-08-20T03:02:00.323Z,4.90
2022-08-20T03:04:31.267Z,4.75
2022-08-20T03:06:59.034Z,5.18
2022-08-20T03:09:26.003Z,4.97
2022-08-20T03:11:53.081Z,4.82
2022-08-20T03:14:20.048Z,5.10
2022-08-20T03:16:47.084Z,5.53
2022-08-20T03:19:14.301Z,5.35
2022-08-20T03:21:41.957Z,4.70
2022-08-20T03:24:09.376Z,5.43
2022-08-20T03:26:37.793Z,6.15
2022-08-20T03:29:05.046Z,5.30
2022-08-20T03:31:31.952Z,5.40
2022-08-20T03:33:58.922Z,5.35
2022-08-20T03:36:28.835Z,5.78
2022-08-20T03:39:01.712Z,5.63
2022-08-20T03:43:56.623Z,5.25
2022-08-20T03:46:24.147Z,5.20
2022-08-20T03:48:56.649Z,6.22
2022-08-20T03:51:29.726Z,5.47
2022-08-20T03:53:57.166Z,5.47
2022-08-20T03:56:24.536Z,5.32
2022-08-20T03:58:51.464Z,5.55
2022-08-20T04:01:44.858Z,5.97
2022-08-20T04:04:05.649Z,5.75
2022-08-20T04:06:39.490Z,5.75
2022-08-20T04:09:07.420Z,5.50
2022-08-20T04:11:37.691Z,5.10
2022-08-20T04:14:04.746Z,5.55
2022-08-20T04:16:33.481Z,5.65
2022-08-20T04:19:02.468Z,5.72
2022-08-20T04:21:33.123Z,5.82
2022-08-20T04:24:01.548Z,5.80
2022-08-20T04:26:28.562Z,5.10
2022-08-20T04:28:55.936Z,5.32
2022-08-20T04:31:33.112Z,6.03
2022-08-20T04:34:02.109Z,5.78
2022-08-20T04:36:29.557Z,5.57
2022-08-20T04:38:56.947Z,5.05
2022-08-20T04:41:24.447Z,4.97
2022-08-20T04:43:54.265Z,6.03
2022-08-20T04:46:26.054Z,5.20
2022-08-20T04:48:53.425Z,5.87
2022-08-20T04:51:22.862Z,5.75
2022-08-20T04:53:53.254Z,5.13
2022-08-20T04:56:28.186Z,5.22
2022-08-20T04:58:58.665Z,4.97
2022-08-20T05:01:26.498Z,6.40
2022-08-20T05:03:55.327Z,5.85
2022-08-20T05:06:25.911Z,5.68
2022-08-20T05:08:54.564Z,5.15
2022-08-20T05:11:34.735Z,4.85
2022-08-20T05:14:11.496Z,4.90
2022-08-20T05:16:39.666Z,5.22
2022-08-20T05:19:09.686Z,4.50
2022-08-20T05:21:37.578Z,5.05
2022-08-20T05:24:05.777Z,5.07
2022-08-20T05:26:33.567Z,4.78
2022-08-20T05:29:00.582Z,5.07
2022-08-20T05:31:31.608Z,4.28
2022-08-20T05:34:11.592Z,6.13
2022-08-20T05:36:50.464Z,4.63
2022-08-20T05:39:22.643Z,4.93
2022-08-20T05:41:51.375Z,5.53
2022-08-20T05:44:19.584Z,5.63
2022-08-20T05:46:48.017Z,4.65
2022-08-20T05:49:20.221Z,4.05
2022-08-20T05:51:48.843Z,4.22
2022-08-20T05:54:16.120Z,4.60
2022-08-20T05:56:43.822Z,4.95
2022-08-20T05:59:12.684Z,4.90
2022-08-20T06:01:41.041Z,4.35
2022-08-20T06:04:24.811Z,4.28
2022-08-20T06:06:54.382Z,3.70
2022-08-20T06:09:30.936Z,4.65
2022-08-20T06:12:00.899Z,3.35
2022-08-20T06:14:27.921Z,4.25
2022-08-20T06:16:58.045Z,4.50
2022-08-20T06:19:27.185Z,3.90
2022-08-20T06:21:59.788Z,4.22
2022-08-20T06:24:27.083Z,3.80
2022-08-20T06:27:02.851Z,3.70
2022-08-20T06:29:30.033Z,4.03
2022-08-20T06:31:56.984Z,4.03
2022-08-20T06:34:28.419Z,4.30
2022-08-20T06:36:59.640Z,4.55
2022-08-20T06:39:31.161Z,4.38
2022-08-20T06:41:58.830Z,3.42
2022-08-20T06:44:26.287Z,6.45
2022-08-20T06:46:53.799Z,8.23
2022-08-20T06:49:20.769Z,4.82
2022-08-20T06:51:51.910Z,5.45
2022-08-20T06:54:22.274Z,4.27
2022-08-20T06:56:56.557Z,11.48
2022-08-20T06:59:23.518Z,7.07
2022-08-20T07:01:50.561Z,10.43
2022-08-20T07:04:17.572Z,5.95
2022-08-20T07:06:44.562Z,6.18
2022-08-20T07:09:11.516Z,5.80
2022-08-20T07:11:38.441Z,5.10
2022-08-20T07:14:05.729Z,8.73
2022-08-20T07:16:32.819Z,7.22
2022-08-20T07:18:59.787Z,5.07
2022-08-20T07:21:26.896Z,5.40
2022-08-20T07:23:53.893Z,7.50
2022-08-20T07:26:21.124Z,7.10
2022-08-20T07:28:48.213Z,7.65
2022-08-20T07:31:34.980Z,6.03
2022-08-20T07:34:02.847Z,5.65
2022-08-20T07:36:30.545Z,4.47
2022-08-20T07:38:58.025Z,5.78
2022-08-20T07:41:25.444Z,5.15
2022-08-20T07:43:52.411Z,4.60
2022-08-20T07:46:21.762Z,4.35
2022-08-20T07:48:50.515Z,5.47
2022-08-20T07:51:22.710Z,5.78
2022-08-20T07:53:51.767Z,5.97
2022-08-20T07:56:24.573Z,5.53
2022-08-20T07:58:55.727Z,6.43
2022-08-20T08:01:26.212Z,5.72
2022-08-20T08:03:53.539Z,5.57
2022-08-20T08:06:29.967Z,5.55
2022-08-20T08:09:09.884Z,5.10
2022-08-20T08:11:39.838Z,4.97
2022-08-20T08:14:09.656Z,4.93
2022-08-20T08:16:37.847Z,6.13
2022-08-20T08:19:08.778Z,5.90
2022-08-20T08:21:35.805Z,5.88
2022-08-20T08:24:03.257Z,6.75
2022-08-20T08:26:30.515Z,6.65
2022-08-20T08:28:58.495Z,5.03
2022-08-20T08:31:26.049Z,5.53
2022-08-20T08:33:53.426Z,5.90
2022-08-20T08:36:20.426Z,5.45
2022-08-20T08:38:47.477Z,5.82
2022-08-20T08:41:20.396Z,5.88
2022-08-20T08:43:53.332Z,5.55
2022-08-20T08:46:24.550Z,6.00
2022-08-20T08:48:54.800Z,5.90
2022-08-20T08:51:37.377Z,6.60
2022-08-20T08:54:07.204Z,6.28
2022-08-20T08:56:35.187Z,5.15
2022-08-20T08:59:08.826Z,6.15
2022-08-20T09:01:54.504Z,5.25
2022-08-20T09:04:56.703Z,5.90
2022-08-20T09:07:27.488Z,6.18
2022-08-20T09:09:54.627Z,5.55
2022-08-20T09:12:24.800Z,5.38
2022-08-20T09:14:52.224Z,5.45
2022-08-20T09:17:21.016Z,5.13
2022-08-20T09:19:49.331Z,5.18
2022-08-20T09:22:19.955Z,5.68
2022-08-20T09:24:47.527Z,5.82
2022-08-20T09:27:15.140Z,5.55
2022-08-20T09:29:42.385Z,6.20
2022-08-20T09:32:13.342Z,4.80
2022-08-20T09:34:46.984Z,5.32
2022-08-20T09:37:15.380Z,6.05
2022-08-20T09:39:43.217Z,6.00
2022-08-20T09:42:17.140Z,6.57
2022-08-20T09:44:45.291Z,6.00
2022-08-20T09:47:12.423Z,6.45
2022-08-20T09:49:39.848Z,7.00
2022-08-20T09:52:09.762Z,5.47
2022-08-20T09:54:37.972Z,6.63
2022-08-20T09:57:07.202Z,5.95
2022-08-20T09:59:35.861Z,6.43
2022-08-20T10:02:03.893Z,5.43
2022-08-20T10:04:31.076Z,5.03
2022-08-20T10:06:58.044Z,6.13
2022-08-20T10:09:25.048Z,5.60
2022-08-20T10:11:52.081Z,7.35
2022-08-20T10:14:19.020Z,6.68
2022-08-20T10:16:45.926Z,6.20
2022-08-20T10:19:13.060Z,5.65
2022-08-20T10:21:40.134Z,5.72
2022-08-20T10:24:07.083Z,6.78
2022-08-20T10:26:34.099Z,7.13
2022-08-20T10:29:01.101Z,5.20
2022-08-20T10:31:28.165Z,6.07
2022-08-20T10:33:55.236Z,6.15
2022-08-20T10:36:22.215Z,4.95
2022-08-20T10:38:49.410Z,6.78
2022-08-20T10:41:16.650Z,7.43
2022-08-20T10:43:43.792Z,6.13
2022-08-20T10:46:10.891Z,7.00
2022-08-20T10:48:38.246Z,6.15
2022-08-20T10:51:05.700Z,6.45
2022-08-20T10:53:32.917Z,6.00
2022-08-20T10:56:00.043Z,7.10
2022-08-20T10:58:37.500Z,6.68
2022-08-20T11:01:06.759Z,6.47
2022-08-20T11:03:35.113Z,6.63
2022-08-20T11:06:02.955Z,7.10
2022-08-20T11:08:34.052Z,7.13
2022-08-20T11:11:03.444Z,5.95
2022-08-20T11:13:30.377Z,8.02
2022-08-20T11:15:57.488Z,6.03
2022-08-20T11:18:24.523Z,5.93
2022-08-20T11:20:51.477Z,7.50
2022-08-20T11:23:18.527Z,7.03
2022-08-20T11:25:45.512Z,7.75
2022-08-20T11:28:13.295Z,8.18
2022-08-20T11:30:40.382Z,7.97
2022-08-20T11:33:07.899Z,8.20
2022-08-20T11:35:48.646Z,7.47
2022-08-20T11:38:18.211Z,7.25
2022-08-20T11:40:47.117Z,6.25
2022-08-20T11:43:16.431Z,6.20
2022-08-20T11:45:49.806Z,6.32
2022-08-20T11:48:18.106Z,6.50
2022-08-20T11:50:45.522Z,6.55
2022-08-20T11:53:12.777Z,7.28
2022-08-20T11:55:41.370Z,7.05
2022-08-20T11:58:09.759Z,7.13
2022-08-20T12:00:37.243Z,5.40
2022-08-20T12:03:09.442Z,5.97
2022-08-20T12:05:39.330Z,5.88
2022-08-20T12:08:07.123Z,5.10
2022-08-20T12:10:34.369Z,5.22
2022-08-20T12:13:04.504Z,5.45
2022-08-20T12:15:33.366Z,5.10
2022-08-20T12:18:01.297Z,5.22
2022-08-20T12:20:28.331Z,5.90
2022-08-20T12:22:55.541Z,5.05
2022-08-20T12:25:22.771Z,5.97
2022-08-20T12:27:49.754Z,4.40
2022-08-20T12:30:21.390Z,5.18
2022-08-20T12:32:49.007Z,4.90
2022-08-20T12:35:18.135Z,5.32
2022-08-20T12:37:46.003Z,5.32
2022-08-20T12:40:18.040Z,4.75
2022-08-20T12:42:57.724Z,5.63
2022-08-20T12:45:25.138Z,5.50
2022-08-20T12:47:52.146Z,4.78
2022-08-20T12:50:24.725Z,5.43
2022-08-20T12:52:53.530Z,5.90
2022-08-20T12:55:20.965Z,5.95
2022-08-20T12:57:51.965Z,5.63
2022-08-20T13:00:24.260Z,5.78
2022-08-20T13:02:53.280Z,5.35
2022-08-20T13:05:20.903Z,5.63
2022-08-20T13:07:48.489Z,6.45
2022-08-20T13:10:22.338Z,5.35
2022-08-20T13:12:49.729Z,5.07
2022-08-20T13:15:16.887Z,5.95
2022-08-20T13:17:43.872Z,5.28
2022-08-20T13:20:15.375Z,5.95
2022-08-20T13:22:43.336Z,5.47
2022-08-20T13:25:12.260Z,6.25
2022-08-20T13:27:42.257Z,5.47
2022-08-20T13:30:13.508Z,5.65
2022-08-20T13:32:40.822Z,5.63
2022-08-20T13:35:09.126Z,6.07
2022-08-20T13:37:36.129Z,6.65
2022-08-20T13:40:03.711Z,6.03
2022-08-20T13:42:30.881Z,6.13
2022-08-20T13:44:57.820Z,6.40
2022-08-20T13:47:27.546Z,6.43
2022-08-20T13:49:59.049Z,6.05
2022-08-20T13:52:27.138Z,7.10
2022-08-20T13:54:55.930Z,7.00
2022-08-20T13:57:24.886Z,6.47
2022-08-20T13:59:57.172Z,6.13
2022-08-20T14:04:52.065Z,6.45
2022-08-20T14:07:32.209Z,5.82
2022-08-20T14:10:10.595Z,5.95
2022-08-20T14:12:37.780Z,6.80
2022-08-20T14:15:05.476Z,6.20
2022-08-20T14:17:35.353Z,6.00
2022-08-20T14:20:10.914Z,6.22
2022-08-20T14:22:37.939Z,5.95
2022-08-20T14:25:10.408Z,6.85
2022-08-20T14:27:37.758Z,6.55
2022-08-20T14:30:07.968Z,6.00
2022-08-20T14:32:35.349Z,7.07
2022-08-20T14:35:02.364Z,6.93
2022-08-20T14:37:33.213Z,6.80
2022-08-20T14:40:01.939Z,6.45
2022-08-20T14:42:30.510Z,6.90
2022-08-20T14:44:59.277Z,6.45
2022-08-20T14:47:27.935Z,6.22
2022-08-20T14:49:57.941Z,6.38
2022-08-20T14:52:28.125Z,5.40
2022-08-20T14:54:55.572Z,6.25
2022-08-20T14:57:23.135Z,6.80
2022-08-20T14:59:53.309Z,5.53
2022-08-20T15:02:20.395Z,5.93
2022-08-20T15:04:53.938Z,5.60
2022-08-20T15:07:25.841Z,4.97
2022-08-20T15:09:53.964Z,6.03
2022-08-20T15:12:21.298Z,5.85
2022-08-20T15:14:49.111Z,5.40
2022-08-20T15:17:26.115Z,5.00
2022-08-20T15:19:54.092Z,5.05
2022-08-20T15:22:22.654Z,7.35
2022-08-20T15:24:50.377Z,5.22
2022-08-20T15:27:25.459Z,4.82
2022-08-20T15:29:53.895Z,5.03
2022-08-20T15:32:21.910Z,5.90
2022-08-20T15:34:49.117Z,5.63
2022-08-20T15:37:20.074Z,6.00
2022-08-20T15:39:47.910Z,6.72
2022-08-20T15:42:16.101Z,6.78
2022-08-20T15:44:43.955Z,6.88
2022-08-20T15:47:20.795Z,7.30
2022-08-20T15:49:50.427Z,6.97
2022-08-20T15:52:17.974Z,6.45
2022-08-20T15:54:46.250Z,6.82
2022-08-20T15:57:22.309Z,6.25
2022-08-20T16:00:22.706Z,6.70
2022-08-20T16:03:01.975Z,6.35
2022-08-20T16:05:44.676Z,5.80
2022-08-20T16:08:46.919Z,6.32
2022-08-20T16:11:25.011Z,6.00
2022-08-20T16:13:56.021Z,6.15
2022-08-20T16:16:34.169Z,5.50
2022-08-20T16:19:01.216Z,5.55
2022-08-20T16:21:37.466Z,5.53
2022-08-20T16:24:07.658Z,5.70
2022-08-20T16:27:19.323Z,5.47
2022-08-20T16:30:20.750Z,5.30
2022-08-20T16:33:02.144Z,6.03
2022-08-20T16:35:34.190Z,6.05
2022-08-20T16:38:25.515Z,6.47
2022-08-20T16:41:02.463Z,6.32
2022-08-20T16:43:39.211Z,5.93
2022-08-20T16:46:19.741Z,6.55
2022-08-20T16:48:58.686Z,6.45
2022-08-20T16:51:50.960Z,6.45
2022-08-20T16:54:29.690Z,7.20
2022-08-20T16:57:04.102Z,6.32
2022-08-20T16:59:32.315Z,6.50
2022-08-20T17:02:06.996Z,7.50
2022-08-20T17:04:58.443Z,6.30
2022-08-20T17:07:33.291Z,7.25
2022-08-20T17:10:34.704Z,7.45
2022-08-20T17:13:23.484Z,6.97
2022-08-20T17:16:00.461Z,7.55
2022-08-20T17:18:31.932Z,7.32
2022-08-20T17:21:07.195Z,8.07
2022-08-20T17:23:49.357Z,7.60
2022-08-20T17:27:13.490Z,6.85
2022-08-20T17:29:56.518Z,6.30
2022-08-20T17:32:27.013Z,7.72
2022-08-20T17:34:56.925Z,7.15
2022-08-20T17:37:27.687Z,8.13
2022-08-20T17:40:16.108Z,7.72
2022-08-20T17:43:03.531Z,7.72
2022-08-20T17:45:45.754Z,7.95
2022-08-20T17:48:17.017Z,8.00
2022-08-20T17:50:44.805Z,8.20
2022-08-20T17:53:24.091Z,7.40
2022-08-20T17:56:00.724Z,7.90
2022-08-20T17:58:54.296Z,8.52
2022-08-20T18:01:22.987Z,7.72
2022-08-20T18:03:51.691Z,7.93
2022-08-20T18:06:31.198Z,7.68
2022-08-20T18:09:08.522Z,8.68
2022-08-20T18:11:35.462Z,8.43
2022-08-20T18:14:29.247Z,8.50
2022-08-20T18:17:16.437Z,8.27
2022-08-20T18:19:49.275Z,8.07
2022-08-20T18:22:23.149Z,8.20
2022-08-20T18:24:59.004Z,8.18
2022-08-20T18:27:37.613Z,8.30
2022-08-20T18:30:13.922Z,9.25
2022-08-20T18:32:40.929Z,7.72
2022-08-20T18:35:29.919Z,9.07
2022-08-20T18:37:57.029Z,9.00
2022-08-20T18:40:33.134Z,9.02
2022-08-20T18:43:10.751Z,9.77
2022-08-20T18:45:37.841Z,10.15
2022-08-20T18:48:05.886Z,9.82
2022-08-20T18:50:47.561Z,11.32
2022-08-20T18:53:21.180Z,11.85
2022-08-20T18:56:07.211Z,13.55
2022-08-20T18:58:49.467Z,12.55
2022-08-20T19:01:16.854Z,13.05
2022-08-20T19:03:51.182Z,13.82
2022-08-20T19:06:44.540Z,10.43
2022-08-20T19:09:23.161Z,11.98
2022-08-20T19:12:14.606Z,12.30
2022-08-20T19:14:57.233Z,11.82
2022-08-20T19:20:29.427Z,11.70
2022-08-20T19:23:05.030Z,12.60
2022-08-20T19:25:38.661Z,11.35
2022-08-20T19:28:23.653Z,11.48
2022-08-20T19:30:51.746Z,12.05
2022-08-20T19:33:43.879Z,9.88
2022-08-20T19:36:28.108Z,7.82
2022-08-20T19:39:00.297Z,9.07
2022-08-20T19:41:35.540Z,9.15
2022-08-20T19:44:02.780Z,8.77
2022-08-20T19:46:57.082Z,8.43
2022-08-20T19:49:36.497Z,8.55
2022-08-20T19:52:34.804Z,8.15
2022-08-20T19:55:04.145Z,8.52
2022-08-20T19:57:31.713Z,8.15
2022-08-20T20:00:01.924Z,7.95
2022-08-20T20:02:32.245Z,7.57
2022-08-20T20:04:59.280Z,8.43
2022-08-20T20:07:34.561Z,7.32
2022-08-20T20:10:09.266Z,7.53
2022-08-20T20:12:39.302Z,6.63
2022-08-20T20:15:07.631Z,7.72
2022-08-20T20:17:36.648Z,7.60
2022-08-20T20:20:31.202Z,7.05
2022-08-20T20:23:06.829Z,7.95
2022-08-20T20:25:34.207Z,7.57
2022-08-20T20:28:50.515Z,7.45
2022-08-20T20:31:32.677Z,6.35
2022-08-20T20:34:09.540Z,7.43
2022-08-20T20:36:48.899Z,6.65
2022-08-20T20:39:39.947Z,6.85
2022-08-20T20:42:11.712Z,5.68
2022-08-20T20:44:43.014Z,7.05
2022-08-20T20:47:29.864Z,6.00
2022-08-20T20:50:04.179Z,6.63
2022-08-20T20:52:38.447Z,6.68
2022-08-20T20:55:25.612Z,6.15
2022-08-20T20:57:55.199Z,6.45
2022-08-20T21:00:26.096Z,6.35
2022-08-20T21:02:53.543Z,6.35
2022-08-20T21:05:23.295Z,5.70
2022-08-20T21:07:56.065Z,5.90
2022-08-20T21:10:26.772Z,5.50
2022-08-20T21:12:53.785Z,5.90
2022-08-20T21:15:22.915Z,5.35
2022-08-20T21:17:51.932Z,5.90
2022-08-20T21:20:20.037Z,6.60
2022-08-20T21:22:46.995Z,5.45
2022-08-20T21:25:14.301Z,6.13
2022-08-20T21:27:45.609Z,5.97
2022-08-20T21:30:13.457Z,6.25
2022-08-20T21:32:40.558Z,5.53
2022-08-20T21:35:08.139Z,5.60
2022-08-20T21:37:35.140Z,6.05
2022-08-20T21:40:03.658Z,5.75
2022-08-20T21:42:31.608Z,5.40
2022-08-20T21:44:59.325Z,5.47
2022-08-20T21:47:26.862Z,4.88
2022-08-20T21:49:54.101Z,5.93
2022-08-20T21:52:21.066Z,5.15
2022-08-20T21:54:48.024Z,5.50
2022-08-20T21:57:20.529Z,6.10
2022-08-20T22:02:16.283Z,5.75
2022-08-20T22:04:43.996Z,6.30
2022-08-20T22:07:12.083Z,5.38
2022-08-20T22:09:39.247Z,5.63
2022-08-20T22:12:13.434Z,5.63
2022-08-20T22:14:40.408Z,5.75
2022-08-20T22:17:07.347Z,5.53
2022-08-20T22:19:34.355Z,6.00
2022-08-20T22:22:01.331Z,4.90
2022-08-20T22:24:29.638Z,6.22
2022-08-20T22:26:57.208Z,6.60
2022-08-20T22:29:24.908Z,4.93
2022-08-20T22:31:51.991Z,5.10
2022-08-20T22:34:20.897Z,5.57
2022-08-20T22:36:49.048Z,6.15
2022-08-20T22:39:16.142Z,5.43
2022-08-20T22:41:43.100Z,4.88
2022-08-20T22:44:10.671Z,5.88
2022-08-20T22:46:45.011Z,5.25
2022-08-20T22:49:18.625Z,4.90
2022-08-20T22:51:45.879Z,6.30
2022-08-20T22:54:18.037Z,5.10
2022-08-20T22:56:45.000Z,5.90
2022-08-20T22:59:12.884Z,5.80
2022-08-20T23:01:40.173Z,5.32
2022-08-20T23:04:24.383Z,5.85
2022-08-20T23:06:52.684Z,4.95
2022-08-20T23:09:20.951Z,4.68
2022-08-20T23:11:48.914Z,4.88
2022-08-20T23:14:16.311Z,5.10
2022-08-20T23:16:47.180Z,6.82
2022-08-20T23:19:21.742Z,4.25
2022-08-20T23:21:49.914Z,5.07
2022-08-20T23:24:17.094Z,5.55
2022-08-20T23:26:52.503Z,4.93
2022-08-20T23:29:25.823Z,5.40
2022-08-20T23:31:54.896Z,4.18
2022-08-20T23:34:22.030Z,4.57
2022-08-20T23:36:49.446Z,4.53
2022-08-20T23:39:16.420Z,5.50
2022-08-20T23:41:47.804Z,4.97
2022-08-20T23:44:26.599Z,4.68
2022-08-20T23:47:00.790Z,4.55
2022-08-20T23:49:29.566Z,4.60
2022-08-20T23:51:57.889Z,4.82
2022-08-20T23:54:24.966Z,4.78
2022-08-20T23:56:55.548Z,4.53
2022-08-20T23:59:24.222Z,4.78
